sensor_id;sensor_type;location;lat;lon;timestamp;pressure;altitude;pressure_sealevel;temperature;humidity
17309;BME280;8772;42.804;23.426;2023-05-21T00:00:02;73387.09;;;-140.58;100.00
17309;BME280;8772;42.804;23.426;2023-05-21T00:02:35;73382.97;;;-140.58;100.00
17309;BME280;8772;42.804;23.426;2023-05-21T00:05:02;73364.53;;;-140.58;100.00
17309;BME280;8772;42.804;23.426;2023-05-21T00:07:30;73358.38;;;-140.58;100.00
17309;BME280;8772;42.804;23.426;2023-05-21T00:09:58;73346.06;;;-140.58;100.00
17309;BME280;8772;42.804;23.426;2023-05-21T00:12:25;73331.69;;;-140.58;100.00
17309;BME280;8772;42.804;23.426;2023-05-21T00:14:51;73315.28;;;-140.58;100.00
17309;BME280;8772;42.804;23.426;2023-05-21T00:17:18;73309.13;;;-140.58;100.00
17309;BME280;8772;42.804;23.426;2023-05-21T00:19:45;73288.63;;;-140.58;100.00
17309;BME280;8772;42.804;23.426;2023-05-21T00:22:14;73272.22;;;-140.58;100.00
17309;BME280;8772;42.804;23.426;2023-05-21T00:24:44;73249.66;;;-140.58;100.00
17309;BME280;8772;42.804;23.426;2023-05-21T00:27:10;73233.25;;;-140.58;100.00
17309;BME280;8772;42.804;23.426;2023-05-21T00:29:37;73212.75;;;-140.58;97.41
17309;BME280;8772;42.804;23.426;2023-05-21T00:32:05;73212.75;;;-140.58;100.00
17309;BME280;8772;42.804;23.426;2023-05-21T00:34:32;73206.59;;;-140.58;96.88
17309;BME280;8772;42.804;23.426;2023-05-21T00:36:59;73206.59;;;-140.58;96.14
17309;BME280;8772;42.804;23.426;2023-05-21T00:39:27;73210.69;;;-140.58;97.45
17309;BME280;8772;42.804;23.426;2023-05-21T00:41:55;73214.78;;;-140.58;94.15
17309;BME280;8772;42.804;23.426;2023-05-21T00:44:22;73196.34;;;-140.58;97.41
17309;BME280;8772;42.804;23.426;2023-05-21T00:46:49;73206.59;;;-140.58;94.32
17309;BME280;8772;42.804;23.426;2023-05-21T00:49:18;73214.78;;;-140.58;95.26
17309;BME280;8772;42.804;23.426;2023-05-21T00:51:47;73202.47;;;-140.58;95.51
17309;BME280;8772;42.804;23.426;2023-05-21T00:54:14;73198.38;;;-140.58;99.55
17309;BME280;8772;42.804;23.426;2023-05-21T00:56:41;73198.38;;;-140.58;100.00
17309;BME280;8772;42.804;23.426;2023-05-21T00:59:09;73210.69;;;-140.58;96.72
17309;BME280;8772;42.804;23.426;2023-05-21T01:01:36;73204.53;;;-140.58;95.14
17309;BME280;8772;42.804;23.426;2023-05-21T01:07:25;73208.63;;;-140.58;93.23
17309;BME280;8772;42.804;23.426;2023-05-21T01:09:52;73210.69;;;-140.58;93.20
17309;BME280;8772;42.804;23.426;2023-05-21T01:12:20;73198.38;;;-140.58;92.83
17309;BME280;8772;42.804;23.426;2023-05-21T01:14:50;73202.47;;;-140.58;91.44
17309;BME280;8772;42.804;23.426;2023-05-21T01:17:17;73188.13;;;-140.58;92.87
17309;BME280;8772;42.804;23.426;2023-05-21T01:19:49;73186.06;;;-140.58;90.52
17309;BME280;8772;42.804;23.426;2023-05-21T01:22:17;73186.06;;;-140.58;90.31
17309;BME280;8772;42.804;23.426;2023-05-21T01:24:50;73181.97;;;-140.58;93.15
17309;BME280;8772;42.804;23.426;2023-05-21T01:27:17;73179.91;;;-140.58;91.42
17309;BME280;8772;42.804;23.426;2023-05-21T01:29:44;73181.97;;;-140.58;94.79
17309;BME280;8772;42.804;23.426;2023-05-21T01:32:16;73177.88;;;-140.58;91.61
17309;BME280;8772;42.804;23.426;2023-05-21T01:35:04;73165.56;;;-140.58;96.68
17309;BME280;8772;42.804;23.426;2023-05-21T01:37:36;73165.56;;;-140.58;100.00
17309;BME280;8772;42.804;23.426;2023-05-21T01:40:11;73173.78;;;-140.58;93.18
17309;BME280;8772;42.804;23.426;2023-05-21T01:42:42;73169.66;;;-140.58;93.47
17309;BME280;8772;42.804;23.426;2023-05-21T01:45:10;73169.66;;;-140.58;96.41
17309;BME280;8772;42.804;23.426;2023-05-21T01:47:40;73181.97;;;-140.58;99.74
17309;BME280;8772;42.804;23.426;2023-05-21T01:50:10;73184.03;;;-140.58;100.00
17309;BME280;8772;42.804;23.426;2023-05-21T01:52:37;73181.97;;;-140.58;100.00
17309;BME280;8772;42.804;23.426;2023-05-21T01:55:05;73181.97;;;-140.58;97.88
17309;BME280;8772;42.804;23.426;2023-05-21T01:57:34;73177.88;;;-140.58;99.53
17309;BME280;8772;42.804;23.426;2023-05-21T02:00:01;73202.47;;;-140.58;96.21
17309;BME280;8772;42.804;23.426;2023-05-21T02:02:29;73194.28;;;-140.58;94.91
17309;BME280;8772;42.804;23.426;2023-05-21T02:04:56;73194.28;;;-140.58;98.62
17309;BME280;8772;42.804;23.426;2023-05-21T02:07:23;73198.38;;;-140.58;98.21
17309;BME280;8772;42.804;23.426;2023-05-21T02:09:50;73202.47;;;-140.58;97.62
17309;BME280;8772;42.804;23.426;2023-05-21T02:12:17;73200.44;;;-140.58;98.84
17309;BME280;8772;42.804;23.426;2023-05-21T02:14:45;73198.38;;;-140.58;100.00
17309;BME280;8772;42.804;23.426;2023-05-21T02:17:14;73204.53;;;-140.58;96.18
17309;BME280;8772;42.804;23.426;2023-05-21T02:19:41;73198.38;;;-140.58;98.52
17309;BME280;8772;42.804;23.426;2023-05-21T02:22:09;73186.06;;;-140.58;97.69
17309;BME280;8772;42.804;23.426;2023-05-21T02:24:36;73190.19;;;-140.58;99.38
17309;BME280;8772;42.804;23.426;2023-05-21T02:27:03;73214.78;;;-140.58;100.00
17309;BME280;8772;42.804;23.426;2023-05-21T02:29:30;73218.91;;;-140.58;100.00
17309;BME280;8772;42.804;23.426;2023-05-21T02:31:58;73212.75;;;-140.58;100.00
17309;BME280;8772;42.804;23.426;2023-05-21T02:34:25;73214.78;;;-140.58;99.11
17309;BME280;8772;42.804;23.426;2023-05-21T02:36:55;73218.91;;;-140.58;99.86
17309;BME280;8772;42.804;23.426;2023-05-21T02:39:23;73225.03;;;-140.58;100.00
17309;BME280;8772;42.804;23.426;2023-05-21T02:41:50;73261.97;;;-140.58;99.08
17309;BME280;8772;42.804;23.426;2023-05-21T02:44:17;73247.59;;;-140.58;100.00
17309;BME280;8772;42.804;23.426;2023-05-21T02:46:45;73245.56;;;-140.58;100.00
17309;BME280;8772;42.804;23.426;2023-05-21T02:49:13;73251.72;;;-140.58;100.00
17309;BME280;8772;42.804;23.426;2023-05-21T02:51:40;73241.47;;;-140.58;100.00
17309;BME280;8772;42.804;23.426;2023-05-21T02:54:07;73239.41;;;-140.58;100.00
17309;BME280;8772;42.804;23.426;2023-05-21T02:56:33;73264.03;;;-140.58;100.00
17309;BME280;8772;42.804;23.426;2023-05-21T02:59:00;73255.81;;;-140.58;100.00
17309;BME280;8772;42.804;23.426;2023-05-21T03:01:27;73251.72;;;-140.58;100.00
17309;BME280;8772;42.804;23.426;2023-05-21T03:03:54;73255.81;;;-140.58;100.00
17309;BME280;8772;42.804;23.426;2023-05-21T03:06:22;73268.13;;;-140.58;100.00
17309;BME280;8772;42.804;23.426;2023-05-21T03:08:49;73266.06;;;-140.58;100.00
17309;BME280;8772;42.804;23.426;2023-05-21T03:11:17;73255.81;;;-140.58;100.00
17309;BME280;8772;42.804;23.426;2023-05-21T03:13:44;73255.81;;;-140.58;100.00
17309;BME280;8772;42.804;23.426;2023-05-21T03:16:11;73259.91;;;-140.58;100.00
17309;BME280;8772;42.804;23.426;2023-05-21T03:18:38;73276.31;;;-140.58;100.00
17309;BME280;8772;42.804;23.426;2023-05-21T03:21:05;73268.13;;;-140.58;100.00
17309;BME280;8772;42.804;23.426;2023-05-21T03:23:33;73276.31;;;-140.58;100.00
17309;BME280;8772;42.804;23.426;2023-05-21T03:26:00;73257.88;;;-140.58;100.00
17309;BME280;8772;42.804;23.426;2023-05-21T03:28:27;73251.72;;;-140.58;100.00
17309;BME280;8772;42.804;23.426;2023-05-21T03:30:54;73259.91;;;-140.58;100.00
17309;BME280;8772;42.804;23.426;2023-05-21T03:33:21;73245.56;;;-140.58;100.00
17309;BME280;8772;42.804;23.426;2023-05-21T03:35:48;73247.59;;;-140.58;100.00
17309;BME280;8772;42.804;23.426;2023-05-21T03:38:15;73251.72;;;-140.58;100.00
17309;BME280;8772;42.804;23.426;2023-05-21T03:40:43;73239.41;;;-140.58;100.00
17309;BME280;8772;42.804;23.426;2023-05-21T03:43:10;73227.09;;;-140.58;100.00
17309;BME280;8772;42.804;23.426;2023-05-21T03:45:37;73223.00;;;-140.58;100.00
17309;BME280;8772;42.804;23.426;2023-05-21T03:48:04;73220.94;;;-140.58;100.00
17309;BME280;8772;42.804;23.426;2023-05-21T03:50:31;73216.84;;;-140.58;100.00
17309;BME280;8772;42.804;23.426;2023-05-21T03:52:58;73210.69;;;-140.58;100.00
17309;BME280;8772;42.804;23.426;2023-05-21T03:55:25;73214.78;;;-140.58;100.00
17309;BME280;8772;42.804;23.426;2023-05-21T03:57:53;73206.59;;;-140.58;100.00
17309;BME280;8772;42.804;23.426;2023-05-21T04:00:20;73200.44;;;-140.58;100.00
17309;BME280;8772;42.804;23.426;2023-05-21T04:02:47;73202.47;;;-140.58;100.00
17309;BME280;8772;42.804;23.426;2023-05-21T04:05:14;73194.28;;;-140.58;100.00
17309;BME280;8772;42.804;23.426;2023-05-21T04:07:41;73188.13;;;-140.58;100.00
17309;BME280;8772;42.804;23.426;2023-05-21T04:10:10;73186.06;;;-140.58;100.00
17309;BME280;8772;42.804;23.426;2023-05-21T04:12:38;73190.19;;;-140.58;100.00
17309;BME280;8772;42.804;23.426;2023-05-21T04:15:07;73202.47;;;-140.58;100.00
17309;BME280;8772;42.804;23.426;2023-05-21T04:17:34;73179.91;;;-140.58;100.00
17309;BME280;8772;42.804;23.426;2023-05-21T04:20:01;73169.66;;;-140.58;100.00
17309;BME280;8772;42.804;23.426;2023-05-21T04:22:29;73169.66;;;-140.58;100.00
17309;BME280;8772;42.804;23.426;2023-05-21T04:24:55;73165.56;;;-140.58;100.00
17309;BME280;8772;42.804;23.426;2023-05-21T04:27:24;73157.34;;;-140.58;100.00
17309;BME280;8772;42.804;23.426;2023-05-21T04:29:51;73149.16;;;-140.58;100.00
17309;BME280;8772;42.804;23.426;2023-05-21T04:32:20;73140.94;;;-140.58;100.00
17309;BME280;8772;42.804;23.426;2023-05-21T04:34:47;73138.91;;;-140.58;100.00
17309;BME280;8772;42.804;23.426;2023-05-21T04:37:14;73136.84;;;-140.58;100.00
17309;BME280;8772;42.804;23.426;2023-05-21T04:39:42;73130.69;;;-140.58;100.00
17309;BME280;8772;42.804;23.426;2023-05-21T04:42:09;73126.59;;;-140.58;100.00
17309;BME280;8772;42.804;23.426;2023-05-21T04:44:36;73118.38;;;-140.58;100.00
17309;BME280;8772;42.804;23.426;2023-05-21T04:47:04;73112.25;;;-140.58;100.00
17309;BME280;8772;42.804;23.426;2023-05-21T04:49:33;73108.13;;;-140.58;100.00
17309;BME280;8772;42.804;23.426;2023-05-21T04:52:00;73104.03;;;-140.58;100.00
17309;BME280;8772;42.804;23.426;2023-05-21T04:54:27;73099.94;;;-140.58;100.00
17309;BME280;8772;42.804;23.426;2023-05-21T04:56:54;73099.94;;;-140.58;100.00
17309;BME280;8772;42.804;23.426;2023-05-21T04:59:22;73095.81;;;-140.58;100.00
17309;BME280;8772;42.804;23.426;2023-05-21T05:01:49;73087.63;;;-140.58;100.00
17309;BME280;8772;42.804;23.426;2023-05-21T05:04:16;73081.47;;;-140.58;100.00
17309;BME280;8772;42.804;23.426;2023-05-21T05:06:44;73071.22;;;-140.58;100.00
17309;BME280;8772;42.804;23.426;2023-05-21T05:09:11;73071.22;;;-140.58;100.00
17309;BME280;8772;42.804;23.426;2023-05-21T05:11:38;73058.91;;;-140.58;100.00
17309;BME280;8772;42.804;23.426;2023-05-21T05:14:05;73050.72;;;-140.58;100.00
17309;BME280;8772;42.804;23.426;2023-05-21T05:16:32;73056.84;;;-140.58;100.00
17309;BME280;8772;42.804;23.426;2023-05-21T05:18:59;73038.41;;;-140.58;100.00
17309;BME280;8772;42.804;23.426;2023-05-21T05:21:26;73032.25;;;-140.58;100.00
17309;BME280;8772;42.804;23.426;2023-05-21T05:23:55;73038.41;;;-140.58;100.00
17309;BME280;8772;42.804;23.426;2023-05-21T05:26:22;73017.91;;;-140.58;100.00
17309;BME280;8772;42.804;23.426;2023-05-21T05:28:48;73009.69;;;-140.58;100.00
17309;BME280;8772;42.804;23.426;2023-05-21T05:31:15;73011.75;;;-140.58;93.35
17309;BME280;8772;42.804;23.426;2023-05-21T05:33:42;72993.28;;;-140.58;93.22
17309;BME280;8772;42.804;23.426;2023-05-21T05:36:09;72976.88;;;-140.58;94.15
17309;BME280;8772;42.804;23.426;2023-05-21T05:38:36;72966.63;;;-140.58;92.37
17309;BME280;8772;42.804;23.426;2023-05-21T05:41:04;72946.09;;;-140.58;95.75
17309;BME280;8772;42.804;23.426;2023-05-21T05:43:31;72939.97;;;-140.58;95.46
17309;BME280;8772;42.804;23.426;2023-05-21T05:45:58;72919.44;;;-140.58;92.12
17309;BME280;8772;42.804;23.426;2023-05-21T05:48:25;72911.25;;;-140.58;89.37
17309;BME280;8772;42.804;23.426;2023-05-21T05:50:52;72915.34;;;-140.58;82.20
17309;BME280;8772;42.804;23.426;2023-05-21T05:53:21;72886.63;;;-140.58;82.07
17309;BME280;8772;42.804;23.426;2023-05-21T05:55:48;72878.44;;;-140.58;82.20
17309;BME280;8772;42.804;23.426;2023-05-21T05:58:17;72866.13;;;-140.58;87.76
17309;BME280;8772;42.804;23.426;2023-05-21T06:00:44;72857.91;;;-140.58;87.38
17309;BME280;8772;42.804;23.426;2023-05-21T06:03:11;72835.34;;;-140.58;86.49
17309;BME280;8772;42.804;23.426;2023-05-21T06:05:38;72821.00;;;-140.58;85.39
17309;BME280;8772;42.804;23.426;2023-05-21T06:08:05;72833.31;;;-140.58;78.12
17309;BME280;8772;42.804;23.426;2023-05-21T06:10:32;72812.81;;;-140.58;76.04
17309;BME280;8772;42.804;23.426;2023-05-21T06:12:59;72812.81;;;-140.58;72.24
17309;BME280;8772;42.804;23.426;2023-05-21T06:15:27;72833.31;;;-140.58;72.17
17309;BME280;8772;42.804;23.426;2023-05-21T06:17:54;72818.94;;;-140.58;74.20
17309;BME280;8772;42.804;23.426;2023-05-21T06:20:21;72804.59;;;-140.58;77.17
17309;BME280;8772;42.804;23.426;2023-05-21T06:22:47;72804.59;;;-140.58;71.77
17309;BME280;8772;42.804;23.426;2023-05-21T06:25:14;72810.75;;;-140.58;69.60
17309;BME280;8772;42.804;23.426;2023-05-21T06:27:42;72800.50;;;-140.58;71.87
17309;BME280;8772;42.804;23.426;2023-05-21T06:30:09;72816.91;;;-140.58;70.05
17309;BME280;8772;42.804;23.426;2023-05-21T06:32:38;72806.66;;;-140.58;70.97
17309;BME280;8772;42.804;23.426;2023-05-21T06:35:05;72812.81;;;-140.58;66.89
17309;BME280;8772;42.804;23.426;2023-05-21T06:37:32;72802.53;;;-140.58;67.51
17309;BME280;8772;42.804;23.426;2023-05-21T06:39:59;72796.41;;;-140.58;64.57
17309;BME280;8772;42.804;23.426;2023-05-21T06:42:26;72786.13;;;-140.58;64.74
17309;BME280;8772;42.804;23.426;2023-05-21T06:44:53;72780.00;;;-140.58;63.79
17309;BME280;8772;42.804;23.426;2023-05-21T06:47:19;72757.44;;;-140.58;65.17
17309;BME280;8772;42.804;23.426;2023-05-21T06:49:48;72747.19;;;-140.58;61.11
17309;BME280;8772;42.804;23.426;2023-05-21T06:52:15;72763.59;;;-140.58;61.25
17309;BME280;8772;42.804;23.426;2023-05-21T06:54:42;72751.28;;;-140.58;63.76
17309;BME280;8772;42.804;23.426;2023-05-21T06:57:08;72741.03;;;-140.58;62.16
17309;BME280;8772;42.804;23.426;2023-05-21T06:59:35;72751.28;;;-140.58;60.44
17309;BME280;8772;42.804;23.426;2023-05-21T07:02:02;72732.81;;;-140.58;62.85
17309;BME280;8772;42.804;23.426;2023-05-21T07:04:29;72732.81;;;-140.58;62.65
17309;BME280;8772;42.804;23.426;2023-05-21T07:06:58;72751.28;;;-140.58;62.49
17309;BME280;8772;42.804;23.426;2023-05-21T07:09:25;72730.78;;;-140.58;61.15
17309;BME280;8772;42.804;23.426;2023-05-21T07:11:52;72697.97;;;-140.58;63.56
17309;BME280;8772;42.804;23.426;2023-05-21T07:14:18;72652.84;;;-140.58;60.13
17309;BME280;8772;42.804;23.426;2023-05-21T07:16:45;72636.44;;;-140.58;54.16
17309;BME280;8772;42.804;23.426;2023-05-21T07:19:14;72615.94;;;-140.58;55.83
17309;BME280;8772;42.804;23.426;2023-05-21T07:21:40;72595.41;;;-140.58;54.51
17309;BME280;8772;42.804;23.426;2023-05-21T07:24:09;72609.78;;;-140.58;54.75
17309;BME280;8772;42.804;23.426;2023-05-21T07:26:35;72611.81;;;-140.58;56.82
17309;BME280;8772;42.804;23.426;2023-05-21T07:29:02;72615.94;;;-140.58;54.90
17309;BME280;8772;42.804;23.426;2023-05-21T07:31:29;72615.94;;;-140.58;55.55
17309;BME280;8772;42.804;23.426;2023-05-21T07:33:56;72611.81;;;-140.58;54.81
17309;BME280;8772;42.804;23.426;2023-05-21T07:36:23;72634.38;;;-140.58;54.37
17309;BME280;8772;42.804;23.426;2023-05-21T07:38:50;72650.78;;;-140.58;54.35
17309;BME280;8772;42.804;23.426;2023-05-21T07:41:18;72636.44;;;-140.58;55.22
17309;BME280;8772;42.804;23.426;2023-05-21T07:43:46;72646.69;;;-140.58;54.10
17309;BME280;8772;42.804;23.426;2023-05-21T07:46:13;72644.63;;;-140.58;53.98
17309;BME280;8772;42.804;23.426;2023-05-21T07:48:40;72654.88;;;-140.58;56.70
17309;BME280;8772;42.804;23.426;2023-05-21T07:51:08;72654.88;;;-140.58;57.14
17309;BME280;8772;42.804;23.426;2023-05-21T07:53:35;72648.72;;;-140.58;56.58
17309;BME280;8772;42.804;23.426;2023-05-21T07:56:03;72656.94;;;-140.58;57.42
17309;BME280;8772;42.804;23.426;2023-05-21T07:58:31;72636.44;;;-140.58;56.02
17309;BME280;8772;42.804;23.426;2023-05-21T08:00:59;72626.19;;;-140.58;55.79
17309;BME280;8772;42.804;23.426;2023-05-21T08:03:27;72615.94;;;-140.58;56.29
17309;BME280;8772;42.804;23.426;2023-05-21T08:05:55;72622.06;;;-140.58;54.67
17309;BME280;8772;42.804;23.426;2023-05-21T08:08:22;72597.47;;;-140.58;54.08
17309;BME280;8772;42.804;23.426;2023-05-21T08:10:49;72579.00;;;-140.58;55.23
17309;BME280;8772;42.804;23.426;2023-05-21T08:13:16;72572.84;;;-140.58;51.89
17309;BME280;8772;42.804;23.426;2023-05-21T08:15:44;72562.59;;;-140.58;52.30
17309;BME280;8772;42.804;23.426;2023-05-21T08:18:11;72564.66;;;-140.58;51.03
17309;BME280;8772;42.804;23.426;2023-05-21T08:20:38;72579.00;;;-140.58;51.14
17309;BME280;8772;42.804;23.426;2023-05-21T08:23:05;72562.59;;;-140.58;53.14
17309;BME280;8772;42.804;23.426;2023-05-21T08:25:32;72529.78;;;-140.58;52.22
17309;BME280;8772;42.804;23.426;2023-05-21T08:27:59;72525.69;;;-140.58;50.38
17309;BME280;8772;42.804;23.426;2023-05-21T08:30:26;72496.97;;;-140.58;51.84
17309;BME280;8772;42.804;23.426;2023-05-21T08:32:54;72455.97;;;-140.58;49.49
17309;BME280;8772;42.804;23.426;2023-05-21T08:35:21;72435.47;;;-140.58;48.41
17309;BME280;8772;42.804;23.426;2023-05-21T08:37:48;72419.06;;;-140.58;48.19
17309;BME280;8772;42.804;23.426;2023-05-21T08:40:15;72427.25;;;-140.58;47.07
17309;BME280;8772;42.804;23.426;2023-05-21T08:42:44;72458.03;;;-140.58;47.40
17309;BME280;8772;42.804;23.426;2023-05-21T08:45:12;72453.91;;;-140.58;47.34
17309;BME280;8772;42.804;23.426;2023-05-21T08:47:41;72443.66;;;-140.58;47.36
17309;BME280;8772;42.804;23.426;2023-05-21T08:50:12;72408.81;;;-140.58;47.65
17309;BME280;8772;42.804;23.426;2023-05-21T08:52:39;72394.44;;;-140.58;46.36
17309;BME280;8772;42.804;23.426;2023-05-21T08:55:07;72380.09;;;-140.58;46.02
17309;BME280;8772;42.804;23.426;2023-05-21T08:57:35;72328.84;;;-140.58;50.85
17309;BME280;8772;42.804;23.426;2023-05-21T09:00:03;72304.22;;;-140.58;44.82
17309;BME280;8772;42.804;23.426;2023-05-21T09:02:32;72320.63;;;-140.58;44.84
17309;BME280;8772;42.804;23.426;2023-05-21T09:05:03;72291.94;;;-140.58;45.93
17309;BME280;8772;42.804;23.426;2023-05-21T09:07:35;72304.22;;;-140.58;43.47
17309;BME280;8772;42.804;23.426;2023-05-21T09:10:07;72310.38;;;-140.58;42.89
17309;BME280;8772;42.804;23.426;2023-05-21T09:12:34;72265.28;;;-140.58;45.32
17309;BME280;8772;42.804;23.426;2023-05-21T09:15:02;72242.72;;;-140.58;45.90
17309;BME280;8772;42.804;23.426;2023-05-21T09:17:29;72242.72;;;-140.58;43.12
17309;BME280;8772;42.804;23.426;2023-05-21T09:20:10;72205.81;;;-140.58;43.37
17309;BME280;8772;42.804;23.426;2023-05-21T09:22:41;72201.69;;;-140.58;40.99
17309;BME280;8772;42.804;23.426;2023-05-21T09:25:09;72189.41;;;-140.58;40.55
17309;BME280;8772;42.804;23.426;2023-05-21T09:27:37;72173.00;;;-140.58;41.05
17309;BME280;8772;42.804;23.426;2023-05-21T09:30:08;72168.91;;;-140.58;40.99
17309;BME280;8772;42.804;23.426;2023-05-21T09:32:35;72189.41;;;-140.58;40.54
17309;BME280;8772;42.804;23.426;2023-05-21T09:35:12;72164.78;;;-140.58;44.42
17309;BME280;8772;42.804;23.426;2023-05-21T09:37:41;72134.03;;;-140.58;43.40
17309;BME280;8772;42.804;23.426;2023-05-21T09:40:11;72093.03;;;-140.58;43.39
17309;BME280;8772;42.804;23.426;2023-05-21T09:42:38;72099.19;;;-140.58;41.15
17309;BME280;8772;42.804;23.426;2023-05-21T09:45:07;72144.28;;;-140.58;42.67
17309;BME280;8772;42.804;23.426;2023-05-21T09:47:39;72086.88;;;-140.58;44.44
17309;BME280;8772;42.804;23.426;2023-05-21T09:50:08;72117.63;;;-140.58;41.12
17309;BME280;8772;42.804;23.426;2023-05-21T09:52:35;72197.59;;;-140.58;40.52
17309;BME280;8772;42.804;23.426;2023-05-21T09:55:04;72250.91;;;-140.58;41.26
17309;BME280;8772;42.804;23.426;2023-05-21T09:57:31;72234.50;;;-140.58;43.37
17309;BME280;8772;42.804;23.426;2023-05-21T09:59:58;72168.91;;;-140.58;47.62
17309;BME280;8772;42.804;23.426;2023-05-21T10:02:25;72156.59;;;-140.58;41.80
17309;BME280;8772;42.804;23.426;2023-05-21T10:04:52;72160.69;;;-140.58;40.52
17309;BME280;8772;42.804;23.426;2023-05-21T10:07:20;72115.59;;;-140.58;42.14
17309;BME280;8772;42.804;23.426;2023-05-21T10:09:52;72090.97;;;-140.58;39.07
17309;BME280;8772;42.804;23.426;2023-05-21T10:12:21;72160.69;;;-140.58;38.95
17309;BME280;8772;42.804;23.426;2023-05-21T10:14:50;72164.78;;;-140.58;39.47
17309;BME280;8772;42.804;23.426;2023-05-21T10:17:19;72164.78;;;-140.58;39.02
17309;BME280;8772;42.804;23.426;2023-05-21T10:19:47;72129.94;;;-140.58;37.16
17309;BME280;8772;42.804;23.426;2023-05-21T10:22:15;72136.09;;;-140.58;38.42
17309;BME280;8772;42.804;23.426;2023-05-21T10:24:42;72121.72;;;-140.58;39.74
17309;BME280;8772;42.804;23.426;2023-05-21T10:27:11;72099.19;;;-140.58;37.82
17309;BME280;8772;42.804;23.426;2023-05-21T10:29:40;72080.72;;;-140.58;36.39
17309;BME280;8772;42.804;23.426;2023-05-21T10:32:11;72101.22;;;-140.58;37.87
17309;BME280;8772;42.804;23.426;2023-05-21T10:34:38;72097.13;;;-140.58;37.90
17309;BME280;8772;42.804;23.426;2023-05-21T10:37:07;72099.19;;;-140.58;36.91
17309;BME280;8772;42.804;23.426;2023-05-21T10:39:35;72052.03;;;-140.58;39.58
17309;BME280;8772;42.804;23.426;2023-05-21T10:42:17;72041.78;;;-140.58;37.39
17309;BME280;8772;42.804;23.426;2023-05-21T10:45:00;72074.56;;;-140.58;38.45
17309;BME280;8772;42.804;23.426;2023-05-21T10:48:04;72054.06;;;-140.58;39.00
17309;BME280;8772;42.804;23.426;2023-05-21T10:50:54;72078.69;;;-140.58;37.26
17309;BME280;8772;42.804;23.426;2023-05-21T10:53:32;72068.44;;;-140.58;37.98
17309;BME280;8772;42.804;23.426;2023-05-21T10:56:11;72076.63;;;-140.58;36.90
17309;BME280;8772;42.804;23.426;2023-05-21T10:59:06;72090.97;;;-140.58;37.63
17309;BME280;8772;42.804;23.426;2023-05-21T11:01:39;72066.38;;;-140.58;38.14
17309;BME280;8772;42.804;23.426;2023-05-21T11:04:07;72029.47;;;-140.58;40.54
17309;BME280;8772;42.804;23.426;2023-05-21T11:06:34;72035.63;;;-140.58;38.94
17309;BME280;8772;42.804;23.426;2023-05-21T11:09:01;72015.13;;;-140.58;39.01
17309;BME280;8772;42.804;23.426;2023-05-21T11:11:43;71998.72;;;-140.58;39.56
17309;BME280;8772;42.804;23.426;2023-05-21T11:14:30;71984.34;;;-140.58;37.41
17309;BME280;8772;42.804;23.426;2023-05-21T11:17:01;71976.16;;;-140.58;38.59
17309;BME280;8772;42.804;23.426;2023-05-21T11:19:36;71926.94;;;-140.58;39.71
17309;BME280;8772;42.804;23.426;2023-05-21T11:22:08;71935.16;;;-140.58;39.66
17309;BME280;8772;42.804;23.426;2023-05-21T11:24:40;71931.06;;;-140.58;38.15
17309;BME280;8772;42.804;23.426;2023-05-21T11:27:12;71916.69;;;-140.58;38.28
17309;BME280;8772;42.804;23.426;2023-05-21T11:29:43;71910.53;;;-140.58;37.44
17309;BME280;8772;42.804;23.426;2023-05-21T11:32:16;71970.00;;;-140.58;38.73
17309;BME280;8772;42.804;23.426;2023-05-21T11:34:46;71992.56;;;-140.58;38.59
17309;BME280;8772;42.804;23.426;2023-05-21T11:37:29;72031.53;;;-140.58;37.95
17309;BME280;8772;42.804;23.426;2023-05-21T11:40:15;72099.19;;;-140.58;39.09
17309;BME280;8772;42.804;23.426;2023-05-21T11:42:42;72117.63;;;-140.58;39.76
17309;BME280;8772;42.804;23.426;2023-05-21T11:45:16;72144.28;;;-140.58;40.48
17309;BME280;8772;42.804;23.426;2023-05-21T11:47:45;72150.44;;;-140.58;39.28
17309;BME280;8772;42.804;23.426;2023-05-21T11:50:13;72179.16;;;-140.58;40.40
17309;BME280;8772;42.804;23.426;2023-05-21T11:52:41;72152.50;;;-140.58;41.69
17309;BME280;8772;42.804;23.426;2023-05-21T11:55:08;72177.09;;;-140.58;42.30
17309;BME280;8772;42.804;23.426;2023-05-21T11:57:36;72168.91;;;-140.58;42.72
17309;BME280;8772;42.804;23.426;2023-05-21T12:00:04;72156.59;;;-140.58;41.35
17309;BME280;8772;42.804;23.426;2023-05-21T12:02:42;72132.00;;;-140.58;41.88
17309;BME280;8772;42.804;23.426;2023-05-21T12:05:11;72070.47;;;-140.58;41.61
17309;BME280;8772;42.804;23.426;2023-05-21T12:07:38;72058.16;;;-140.58;42.15
17309;BME280;8772;42.804;23.426;2023-05-21T12:10:06;72070.47;;;-140.58;41.09
17309;BME280;8772;42.804;23.426;2023-05-21T12:12:33;72093.03;;;-140.58;42.08
17309;BME280;8772;42.804;23.426;2023-05-21T12:15:01;72119.69;;;-140.58;40.87
17309;BME280;8772;42.804;23.426;2023-05-21T12:17:29;72123.78;;;-140.58;41.07
17309;BME280;8772;42.804;23.426;2023-05-21T12:19:57;72189.41;;;-140.58;42.43
17309;BME280;8772;42.804;23.426;2023-05-21T12:22:27;72193.50;;;-140.58;41.78
17309;BME280;8772;42.804;23.426;2023-05-21T12:24:54;72209.91;;;-140.58;42.10
17309;BME280;8772;42.804;23.426;2023-05-21T12:27:22;72214.00;;;-140.58;42.15
17309;BME280;8772;42.804;23.426;2023-05-21T12:29:50;72269.38;;;-140.58;42.71
17309;BME280;8772;42.804;23.426;2023-05-21T12:32:19;72242.72;;;-140.58;43.35
17309;BME280;8772;42.804;23.426;2023-05-21T12:34:47;72257.06;;;-140.58;42.54
17309;BME280;8772;42.804;23.426;2023-05-21T12:37:15;72224.25;;;-140.58;42.27
17309;BME280;8772;42.804;23.426;2023-05-21T12:39:44;72187.34;;;-140.58;44.11
17309;BME280;8772;42.804;23.426;2023-05-21T12:42:12;72129.94;;;-140.58;44.13
17309;BME280;8772;42.804;23.426;2023-05-21T12:44:42;72099.19;;;-140.58;40.52
17309;BME280;8772;42.804;23.426;2023-05-21T12:47:10;72070.47;;;-140.58;41.37